sensor_id;sensor_type;location;lat;lon;timestamp;temperature;humidity
68804;SHT31;55787;52.678;13.314;2023-01-23T00:01:28;1.51;97.91
68804;SHT31;55787;52.678;13.314;2023-01-23T00:03:55;1.51;98.03
68804;SHT31;55787;52.678;13.314;2023-01-23T00:06:23;1.49;98.26
68804;SHT31;55787;52.678;13.314;2023-01-23T00:08:50;1.54;98.22
68804;SHT31;55787;52.678;13.314;2023-01-23T00:11:23;1.51;98.22
68804;SHT31;55787;52.678;13.314;2023-01-23T00:13:51;1.51;98.24
68804;SHT31;55787;52.678;13.314;2023-01-23T00:16:20;1.47;98.31
68804;SHT31;55787;52.678;13.314;2023-01-23T00:18:48;1.52;98.20
68804;SHT31;55787;52.678;13.314;2023-01-23T00:21:17;1.54;97.89
68804;SHT31;55787;52.678;13.314;2023-01-23T00:23:47;1.55;97.97
68804;SHT31;55787;52.678;13.314;2023-01-23T00:26:23;1.51;97.53
68804;SHT31;55787;52.678;13.314;2023-01-23T00:28:51;1.52;97.86
68804;SHT31;55787;52.678;13.314;2023-01-23T00:31:20;1.58;97.55
68804;SHT31;55787;52.678;13.314;2023-01-23T00:33:47;1.62;97.29
68804;SHT31;55787;52.678;13.314;2023-01-23T00:36:14;1.58;97.41
68804;SHT31;55787;52.678;13.314;2023-01-23T00:38:41;1.54;97.36
68804;SHT31;55787;52.678;13.314;2023-01-23T00:41:08;1.54;97.63
68804;SHT31;55787;52.678;13.314;2023-01-23T00:43:34;1.58;97.28
68804;SHT31;55787;52.678;13.314;2023-01-23T00:46:01;1.72;96.81
68804;SHT31;55787;52.678;13.314;2023-01-23T00:48:28;1.69;96.50
68804;SHT31;55787;52.678;13.314;2023-01-23T00:50:55;1.62;96.78
68804;SHT31;55787;52.678;13.314;2023-01-23T00:53:22;1.56;97.10
68804;SHT31;55787;52.678;13.314;2023-01-23T00:55:48;1.54;97.26
68804;SHT31;55787;52.678;13.314;2023-01-23T00:58:15;1.51;97.63
68804;SHT31;55787;52.678;13.314;2023-01-23T01:00:42;1.52;97.61
68804;SHT31;55787;52.678;13.314;2023-01-23T01:03:09;1.55;97.69
68804;SHT31;55787;52.678;13.314;2023-01-23T01:05:36;1.54;97.65
68804;SHT31;55787;52.678;13.314;2023-01-23T01:08:03;1.52;97.61
68804;SHT31;55787;52.678;13.314;2023-01-23T01:10:30;1.52;97.90
68804;SHT31;55787;52.678;13.314;2023-01-23T01:13:00;1.51;97.80
68804;SHT31;55787;52.678;13.314;2023-01-23T01:15:27;1.49;97.93
68804;SHT31;55787;52.678;13.314;2023-01-23T01:17:55;1.58;97.90
68804;SHT31;55787;52.678;13.314;2023-01-23T01:20:23;1.59;97.67
68804;SHT31;55787;52.678;13.314;2023-01-23T01:22:56;1.56;97.43
68804;SHT31;55787;52.678;13.314;2023-01-23T01:25:23;1.62;97.44
68804;SHT31;55787;52.678;13.314;2023-01-23T01:27:50;1.56;97.47
68804;SHT31;55787;52.678;13.314;2023-01-23T01:30:17;1.58;97.42
68804;SHT31;55787;52.678;13.314;2023-01-23T01:32:44;1.56;97.43
68804;SHT31;55787;52.678;13.314;2023-01-23T01:35:11;1.58;97.24
68804;SHT31;55787;52.678;13.314;2023-01-23T01:37:39;1.55;97.40
68804;SHT31;55787;52.678;13.314;2023-01-23T01:40:10;1.55;97.68
68804;SHT31;55787;52.678;13.314;2023-01-23T01:42:39;1.55;97.67
68804;SHT31;55787;52.678;13.314;2023-01-23T01:45:53;1.56;97.48
68804;SHT31;55787;52.678;13.314;2023-01-23T01:47:53;1.55;97.40
68804;SHT31;55787;52.678;13.314;2023-01-23T01:50:19;1.52;97.43
68804;SHT31;55787;52.678;13.314;2023-01-23T01:52:46;1.52;97.52
68804;SHT31;55787;52.678;13.314;2023-01-23T01:55:13;1.51;97.52
68804;SHT31;55787;52.678;13.314;2023-01-23T01:57:44;1.51;97.70
68804;SHT31;55787;52.678;13.314;2023-01-23T02:00:13;1.49;97.61
68804;SHT31;55787;52.678;13.314;2023-01-23T02:02:46;1.49;97.95
68804;SHT31;55787;52.678;13.314;2023-01-23T02:08:10;1.75;96.77
68804;SHT31;55787;52.678;13.314;2023-01-23T02:10:40;1.58;96.83
68804;SHT31;55787;52.678;13.314;2023-01-23T02:13:29;1.59;96.92
68804;SHT31;55787;52.678;13.314;2023-01-23T02:16:18;1.54;97.28
68804;SHT31;55787;52.678;13.314;2023-01-23T02:18:48;1.63;96.95
68804;SHT31;55787;52.678;13.314;2023-01-23T02:21:19;1.54;96.93
68804;SHT31;55787;52.678;13.314;2023-01-23T02:26:36;1.51;97.41
68804;SHT31;55787;52.678;13.314;2023-01-23T02:29:04;1.49;97.63
68804;SHT31;55787;52.678;13.314;2023-01-23T02:31:31;1.51;97.46
68804;SHT31;55787;52.678;13.314;2023-01-23T02:33:58;1.54;97.95
68804;SHT31;55787;52.678;13.314;2023-01-23T02:36:29;1.51;97.63
68804;SHT31;55787;52.678;13.314;2023-01-23T02:41:56;1.51;97.81
68804;SHT31;55787;52.678;13.314;2023-01-23T02:44:26;1.47;97.79
68804;SHT31;55787;52.678;13.314;2023-01-23T02:47:07;1.49;97.75
68804;SHT31;55787;52.678;13.314;2023-01-23T02:49:38;1.48;98.00
68804;SHT31;55787;52.678;13.314;2023-01-23T02:52:06;1.45;98.01
68804;SHT31;55787;52.678;13.314;2023-01-23T02:54:32;1.48;98.14
68804;SHT31;55787;52.678;13.314;2023-01-23T02:56:59;1.51;97.90
68804;SHT31;55787;52.678;13.314;2023-01-23T02:59:26;1.49;97.94
68804;SHT31;55787;52.678;13.314;2023-01-23T03:02:11;1.52;97.97
68804;SHT31;55787;52.678;13.314;2023-01-23T03:04:40;1.47;97.90
68804;SHT31;55787;52.678;13.314;2023-01-23T03:07:06;1.47;97.97
68804;SHT31;55787;52.678;13.314;2023-01-23T03:09:33;1.49;97.99
68804;SHT31;55787;52.678;13.314;2023-01-23T03:12:00;1.51;98.03
68804;SHT31;55787;52.678;13.314;2023-01-23T03:14:27;1.45;98.00
68804;SHT31;55787;52.678;13.314;2023-01-23T03:16:54;1.45;97.92
68804;SHT31;55787;52.678;13.314;2023-01-23T03:19:23;1.45;98.11
68804;SHT31;55787;52.678;13.314;2023-01-23T03:21:50;1.47;98.12
68804;SHT31;55787;52.678;13.314;2023-01-23T03:24:18;1.48;98.17
68804;SHT31;55787;52.678;13.314;2023-01-23T03:26:46;1.47;98.01
68804;SHT31;55787;52.678;13.314;2023-01-23T03:29:21;1.47;98.14
68804;SHT31;55787;52.678;13.314;2023-01-23T03:32:08;1.47;98.29
68804;SHT31;55787;52.678;13.314;2023-01-23T03:34:35;1.51;98.17
68804;SHT31;55787;52.678;13.314;2023-01-23T03:37:02;1.45;98.22
68804;SHT31;55787;52.678;13.314;2023-01-23T03:39:29;1.47;98.18
68804;SHT31;55787;52.678;13.314;2023-01-23T03:42:14;1.45;98.08
68804;SHT31;55787;52.678;13.314;2023-01-23T03:44:41;1.45;98.28
68804;SHT31;55787;52.678;13.314;2023-01-23T03:47:08;1.45;98.30
68804;SHT31;55787;52.678;13.314;2023-01-23T03:49:35;1.45;98.32
68804;SHT31;55787;52.678;13.314;2023-01-23T03:52:02;1.45;98.45
68804;SHT31;55787;52.678;13.314;2023-01-23T03:54:29;1.45;98.29
68804;SHT31;55787;52.678;13.314;2023-01-23T03:56:56;1.44;98.26
68804;SHT31;55787;52.678;13.314;2023-01-23T03:59:22;1.45;98.30
68804;SHT31;55787;52.678;13.314;2023-01-23T04:01:49;1.45;98.36
68804;SHT31;55787;52.678;13.314;2023-01-23T04:04:16;1.44;98.16
68804;SHT31;55787;52.678;13.314;2023-01-23T04:06:42;1.41;98.28
68804;SHT31;55787;52.678;13.314;2023-01-23T04:09:09;1.42;98.33
68804;SHT31;55787;52.678;13.314;2023-01-23T04:11:36;1.44;98.46
68804;SHT31;55787;52.678;13.314;2023-01-23T04:14:02;1.45;98.36
68804;SHT31;55787;52.678;13.314;2023-01-23T04:16:30;1.44;98.25
68804;SHT31;55787;52.678;13.314;2023-01-23T04:18:56;1.41;98.35
68804;SHT31;55787;52.678;13.314;2023-01-23T04:21:23;1.42;98.42
68804;SHT31;55787;52.678;13.314;2023-01-23T04:23:51;1.54;97.79
68804;SHT31;55787;52.678;13.314;2023-01-23T04:26:17;1.51;97.39
68804;SHT31;55787;52.678;13.314;2023-01-23T04:28:44;1.48;97.56
68804;SHT31;55787;52.678;13.314;2023-01-23T04:31:11;1.51;97.53
68804;SHT31;55787;52.678;13.314;2023-01-23T04:33:37;1.44;97.80
68804;SHT31;55787;52.678;13.314;2023-01-23T04:36:05;1.45;97.79
68804;SHT31;55787;52.678;13.314;2023-01-23T04:38:32;1.42;98.04
68804;SHT31;55787;52.678;13.314;2023-01-23T04:40:59;1.37;98.04
68804;SHT31;55787;52.678;13.314;2023-01-23T04:43:26;1.37;98.12
68804;SHT31;55787;52.678;13.314;2023-01-23T04:45:53;1.47;97.60
68804;SHT31;55787;52.678;13.314;2023-01-23T04:48:21;1.45;97.31
68804;SHT31;55787;52.678;13.314;2023-01-23T04:50:49;1.48;97.21
68804;SHT31;55787;52.678;13.314;2023-01-23T04:53:16;1.47;97.22
68804;SHT31;55787;52.678;13.314;2023-01-23T04:55:46;1.44;97.50
68804;SHT31;55787;52.678;13.314;2023-01-23T04:58:14;1.42;97.53
68804;SHT31;55787;52.678;13.314;2023-01-23T05:00:40;1.41;97.65
68804;SHT31;55787;52.678;13.314;2023-01-23T05:03:07;1.38;97.88
68804;SHT31;55787;52.678;13.314;2023-01-23T05:05:34;1.35;97.95
68804;SHT31;55787;52.678;13.314;2023-01-23T05:08:00;1.38;97.90
68804;SHT31;55787;52.678;13.314;2023-01-23T05:10:27;1.38;97.79
68804;SHT31;55787;52.678;13.314;2023-01-23T05:12:53;1.40;97.83
68804;SHT31;55787;52.678;13.314;2023-01-23T05:15:20;1.35;97.84
68804;SHT31;55787;52.678;13.314;2023-01-23T05:17:47;1.34;97.92
68804;SHT31;55787;52.678;13.314;2023-01-23T05:20:14;1.34;98.10
68804;SHT31;55787;52.678;13.314;2023-01-23T05:22:42;1.37;98.02
68804;SHT31;55787;52.678;13.314;2023-01-23T05:25:19;1.38;97.60
68804;SHT31;55787;52.678;13.314;2023-01-23T05:27:46;1.31;97.87
68804;SHT31;55787;52.678;13.314;2023-01-23T05:30:13;1.30;98.00
68804;SHT31;55787;52.678;13.314;2023-01-23T05:32:40;1.27;98.01
68804;SHT31;55787;52.678;13.314;2023-01-23T05:35:08;1.28;98.12
68804;SHT31;55787;52.678;13.314;2023-01-23T05:37:35;1.26;98.14
68804;SHT31;55787;52.678;13.314;2023-01-23T05:40:03;1.27;98.06
68804;SHT31;55787;52.678;13.314;2023-01-23T05:42:29;1.26;98.10
68804;SHT31;55787;52.678;13.314;2023-01-23T05:44:56;1.26;98.20
68804;SHT31;55787;52.678;13.314;2023-01-23T05:47:23;1.21;98.30
68804;SHT31;55787;52.678;13.314;2023-01-23T05:49:50;1.21;98.40
68804;SHT31;55787;52.678;13.314;2023-01-23T05:52:17;1.20;98.50
68804;SHT31;55787;52.678;13.314;2023-01-23T05:54:43;1.20;98.54
68804;SHT31;55787;52.678;13.314;2023-01-23T05:57:10;1.23;98.44
68804;SHT31;55787;52.678;13.314;2023-01-23T05:59:36;1.21;98.68
68804;SHT31;55787;52.678;13.314;2023-01-23T06:02:03;1.20;98.61
68804;SHT31;55787;52.678;13.314;2023-01-23T06:04:30;1.21;98.72
68804;SHT31;55787;52.678;13.314;2023-01-23T06:06:57;1.20;98.62
68804;SHT31;55787;52.678;13.314;2023-01-23T06:09:23;1.21;98.66
68804;SHT31;55787;52.678;13.314;2023-01-23T06:11:50;1.17;98.56
68804;SHT31;55787;52.678;13.314;2023-01-23T06:14:17;1.20;98.54
68804;SHT31;55787;52.678;13.314;2023-01-23T06:16:43;1.16;98.41
68804;SHT31;55787;52.678;13.314;2023-01-23T06:19:11;1.14;98.50
68804;SHT31;55787;52.678;13.314;2023-01-23T06:21:38;1.20;98.30
68804;SHT31;55787;52.678;13.314;2023-01-23T06:24:04;1.23;98.18
68804;SHT31;55787;52.678;13.314;2023-01-23T06:26:32;1.17;98.25
68804;SHT31;55787;52.678;13.314;2023-01-23T06:28:59;1.24;98.06
68804;SHT31;55787;52.678;13.314;2023-01-23T06:31:26;1.30;97.79
68804;SHT31;55787;52.678;13.314;2023-01-23T06:33:52;1.26;97.76
68804;SHT31;55787;52.678;13.314;2023-01-23T06:36:19;1.27;97.92
68804;SHT31;55787;52.678;13.314;2023-01-23T06:38:46;1.26;97.55
68804;SHT31;55787;52.678;13.314;2023-01-23T06:41:12;1.26;97.72
68804;SHT31;55787;52.678;13.314;2023-01-23T06:43:39;1.23;97.81
68804;SHT31;55787;52.678;13.314;2023-01-23T06:46:09;1.20;97.82
68804;SHT31;55787;52.678;13.314;2023-01-23T06:48:37;1.18;98.15
68804;SHT31;55787;52.678;13.314;2023-01-23T06:51:04;1.17;98.17
68804;SHT31;55787;52.678;13.314;2023-01-23T06:53:31;1.18;98.18
68804;SHT31;55787;52.678;13.314;2023-01-23T06:55:59;1.18;98.46
68804;SHT31;55787;52.678;13.314;2023-01-23T06:58:26;1.20;98.55
68804;SHT31;55787;52.678;13.314;2023-01-23T07:00:54;1.24;98.27
68804;SHT31;55787;52.678;13.314;2023-01-23T07:03:21;1.23;98.17
68804;SHT31;55787;52.678;13.314;2023-01-23T07:05:47;1.26;98.22
68804;SHT31;55787;52.678;13.314;2023-01-23T07:08:14;1.24;98.47
68804;SHT31;55787;52.678;13.314;2023-01-23T07:10:41;1.24;98.26
68804;SHT31;55787;52.678;13.314;2023-01-23T07:13:09;1.28;98.27
68804;SHT31;55787;52.678;13.314;2023-01-23T07:15:36;1.26;98.18
68804;SHT31;55787;52.678;13.314;2023-01-23T07:18:06;1.28;98.18
68804;SHT31;55787;52.678;13.314;2023-01-23T07:20:32;1.31;98.46
68804;SHT31;55787;52.678;13.314;2023-01-23T07:22:59;1.32;98.23
68804;SHT31;55787;52.678;13.314;2023-01-23T07:25:26;1.34;98.25
68804;SHT31;55787;52.678;13.314;2023-01-23T07:27:53;1.37;98.17
68804;SHT31;55787;52.678;13.314;2023-01-23T07:30:20;1.37;98.18
68804;SHT31;55787;52.678;13.314;2023-01-23T07:32:48;1.34;98.13
68804;SHT31;55787;52.678;13.314;2023-01-23T07:35:15;1.37;98.09
68804;SHT31;55787;52.678;13.314;2023-01-23T07:37:42;1.35;97.98
68804;SHT31;55787;52.678;13.314;2023-01-23T07:40:10;1.40;97.97
68804;SHT31;55787;52.678;13.314;2023-01-23T07:42:37;1.51;97.46
68804;SHT31;55787;52.678;13.314;2023-01-23T07:45:05;1.48;97.16
68804;SHT31;55787;52.678;13.314;2023-01-23T07:47:32;1.45;97.34
68804;SHT31;55787;52.678;13.314;2023-01-23T07:49:58;1.44;97.59
68804;SHT31;55787;52.678;13.314;2023-01-23T07:52:25;1.55;96.73
68804;SHT31;55787;52.678;13.314;2023-01-23T07:54:52;1.65;95.92
68804;SHT31;55787;52.678;13.314;2023-01-23T07:57:18;1.63;96.09
68804;SHT31;55787;52.678;13.314;2023-01-23T07:59:46;1.58;96.02
68804;SHT31;55787;52.678;13.314;2023-01-23T08:02:13;1.58;96.32
68804;SHT31;55787;52.678;13.314;2023-01-23T08:04:39;1.62;96.13
68804;SHT31;55787;52.678;13.314;2023-01-23T08:07:06;1.58;96.22
68804;SHT31;55787;52.678;13.314;2023-01-23T08:09:33;1.56;96.52
68804;SHT31;55787;52.678;13.314;2023-01-23T08:11:59;1.55;96.78
68804;SHT31;55787;52.678;13.314;2023-01-23T08:14:26;1.61;96.83
68804;SHT31;55787;52.678;13.314;2023-01-23T08:16:53;1.63;96.60
68804;SHT31;55787;52.678;13.314;2023-01-23T08:19:20;1.68;96.66
68804;SHT31;55787;52.678;13.314;2023-01-23T08:21:47;1.73;95.99
68804;SHT31;55787;52.678;13.314;2023-01-23T08:24:14;1.69;95.76
68804;SHT31;55787;52.678;13.314;2023-01-23T08:26:40;1.68;96.00
68804;SHT31;55787;52.678;13.314;2023-01-23T08:29:07;1.66;96.33
68804;SHT31;55787;52.678;13.314;2023-01-23T08:31:34;1.68;96.62
68804;SHT31;55787;52.678;13.314;2023-01-23T08:34:01;1.70;96.32
68804;SHT31;55787;52.678;13.314;2023-01-23T08:36:28;1.73;96.17
68804;SHT31;55787;52.678;13.314;2023-01-23T08:38:55;1.86;95.72
68804;SHT31;55787;52.678;13.314;2023-01-23T08:41:23;1.82;95.27
68804;SHT31;55787;52.678;13.314;2023-01-23T08:43:49;1.73;95.58
68804;SHT31;55787;52.678;13.314;2023-01-23T08:46:16;1.73;95.73
68804;SHT31;55787;52.678;13.314;2023-01-23T08:48:43;1.76;96.06
68804;SHT31;55787;52.678;13.314;2023-01-23T08:51:12;1.82;95.84
68804;SHT31;55787;52.678;13.314;2023-01-23T08:53:39;1.85;95.46
68804;SHT31;55787;52.678;13.314;2023-01-23T08:56:10;1.82;95.15
68804;SHT31;55787;52.678;13.314;2023-01-23T08:58:42;1.79;95.80
68804;SHT31;55787;52.678;13.314;2023-01-23T09:01:13;1.86;95.37
68804;SHT31;55787;52.678;13.314;2023-01-23T09:03:40;1.86;95.41
68804;SHT31;55787;52.678;13.314;2023-01-23T09:06:08;1.80;95.59
68804;SHT31;55787;52.678;13.314;2023-01-23T09:08:36;1.89;95.63
68804;SHT31;55787;52.678;13.314;2023-01-23T09:11:05;1.90;95.18
68804;SHT31;55787;52.678;13.314;2023-01-23T09:13:32;1.83;95.45
68804;SHT31;55787;52.678;13.314;2023-01-23T09:15:59;1.93;95.08
68804;SHT31;55787;52.678;13.314;2023-01-23T09:18:26;1.92;94.65
68804;SHT31;55787;52.678;13.314;2023-01-23T09:20:54;2.00;94.14
68804;SHT31;55787;52.678;13.314;2023-01-23T09:23:21;1.92;94.32
68804;SHT31;55787;52.678;13.314;2023-01-23T09:25:49;1.96;94.51
68804;SHT31;55787;52.678;13.314;2023-01-23T09:28:16;1.92;94.62
68804;SHT31;55787;52.678;13.314;2023-01-23T09:30:42;1.87;95.12
68804;SHT31;55787;52.678;13.314;2023-01-23T09:33:09;1.95;95.12
68804;SHT31;55787;52.678;13.314;2023-01-23T09:35:36;1.99;94.55
68804;SHT31;55787;52.678;13.314;2023-01-23T09:38:03;2.02;94.60
68804;SHT31;55787;52.678;13.314;2023-01-23T09:40:49;2.03;94.30
68804;SHT31;55787;52.678;13.314;2023-01-23T09:48:45;2.02;94.31
68804;SHT31;55787;52.678;13.314;2023-01-23T09:53:45;2.03;93.90
68804;SHT31;55787;52.678;13.314;2023-01-23T10:01:35;2.11;92.81
68804;SHT31;55787;52.678;13.314;2023-01-23T10:04:03;2.06;93.02
68804;SHT31;55787;52.678;13.314;2023-01-23T10:06:46;2.00;93.51
68804;SHT31;55787;52.678;13.314;2023-01-23T10:09:35;2.06;93.91
68804;SHT31;55787;52.678;13.314;2023-01-23T10:15:11;2.03;94.28
68804;SHT31;55787;52.678;13.314;2023-01-23T10:20:37;2.07;94.95
68804;SHT31;55787;52.678;13.314;2023-01-23T10:23:24;2.13;94.37
68804;SHT31;55787;52.678;13.314;2023-01-23T10:25:56;2.13;94.49
68804;SHT31;55787;52.678;13.314;2023-01-23T10:28:27;2.09;94.16
68804;SHT31;55787;52.678;13.314;2023-01-23T10:30:58;2.03;94.19
68804;SHT31;55787;52.678;13.314;2023-01-23T10:36:19;2.13;94.64
68804;SHT31;55787;52.678;13.314;2023-01-23T10:39:02;2.13;94.70
68804;SHT31;55787;52.678;13.314;2023-01-23T10:41:29;2.17;94.13
68804;SHT31;55787;52.678;13.314;2023-01-23T10:43:56;2.16;93.99
68804;SHT31;55787;52.678;13.314;2023-01-23T10:46:33;2.24;93.92
68804;SHT31;55787;52.678;13.314;2023-01-23T10:49:01;2.36;92.72
68804;SHT31;55787;52.678;13.314;2023-01-23T10:54:11;2.30;92.99
68804;SHT31;55787;52.678;13.314;2023-01-23T10:57:17;2.27;93.54
68804;SHT31;55787;52.678;13.314;2023-01-23T11:02:31;2.27;94.05
68804;SHT31;55787;52.678;13.314;2023-01-23T11:04:59;2.24;93.67
68804;SHT31;55787;52.678;13.314;2023-01-23T11:07:31;2.27;93.78
68804;SHT31;55787;52.678;13.314;2023-01-23T11:12:52;2.31;92.72
68804;SHT31;55787;52.678;13.314;2023-01-23T11:15:28;2.31;93.25
68804;SHT31;55787;52.678;13.314;2023-01-23T11:17:58;2.27;93.21
68804;SHT31;55787;52.678;13.314;2023-01-23T11:20:29;2.30;93.97
68804;SHT31;55787;52.678;13.314;2023-01-23T11:25:48;2.31;94.27
68804;SHT31;55787;52.678;13.314;2023-01-23T11:28:31;2.36;94.81
68804;SHT31;55787;52.678;13.314;2023-01-23T11:31:13;2.38;93.52
68804;SHT31;55787;52.678;13.314;2023-01-23T11:36:35;2.36;93.62
68804;SHT31;55787;52.678;13.314;2023-01-23T11:39:32;2.34;93.37
68804;SHT31;55787;52.678;13.314;2023-01-23T11:42:02;2.34;93.80
68804;SHT31;55787;52.678;13.314;2023-01-23T11:44:30;2.36;93.40
68804;SHT31;55787;52.678;13.314;2023-01-23T11:47:45;2.36;93.28
68804;SHT31;55787;52.678;13.314;2023-01-23T11:50:29;2.37;93.56
68804;SHT31;55787;52.678;13.314;2023-01-23T11:53:06;2.38;93.39
68804;SHT31;55787;52.678;13.314;2023-01-23T12:00:55;2.38;93.54
68804;SHT31;55787;52.678;13.314;2023-01-23T12:08:53;2.52;91.96
68804;SHT31;55787;52.678;13.314;2023-01-23T12:11:22;2.50;92.32
68804;SHT31;55787;52.678;13.314;2023-01-23T12:17:02;2.45;92.01
68804;SHT31;55787;52.678;13.314;2023-01-23T12:22:29;2.50;92.30
68804;SHT31;55787;52.678;13.314;2023-01-23T12:25:21;2.51;92.44
68804;SHT31;55787;52.678;13.314;2023-01-23T12:28:04;2.54;92.14
68804;SHT31;55787;52.678;13.314;2023-01-23T12:33:27;2.48;91.93
68804;SHT31;55787;52.678;13.314;2023-01-23T12:36:09;2.45;92.03
68804;SHT31;55787;52.678;13.314;2023-01-23T12:42:19;2.44;92.59
68804;SHT31;55787;52.678;13.314;2023-01-23T12:47:32;2.51;91.63
68804;SHT31;55787;52.678;13.314;2023-01-23T12:50:10;2.54;90.61
68804;SHT31;55787;52.678;13.314;2023-01-23T12:52:49;2.44;91.09
68804;SHT31;55787;52.678;13.314;2023-01-23T12:57:47;2.45;91.20
68804;SHT31;55787;52.678;13.314;2023-01-23T13:03:21;2.44;91.90
68804;SHT31;55787;52.678;13.314;2023-01-23T13:08:52;2.45;91.65
68804;SHT31;55787;52.678;13.314;2023-01-23T13:11:56;2.47;92.50
68804;SHT31;55787;52.678;13.314;2023-01-23T13:14:36;2.48;92.86
68804;SHT31;55787;52.678;13.314;2023-01-23T13:17:46;2.52;92.71
68804;SHT31;55787;52.678;13.314;2023-01-23T13:20:34;2.51;93.02
68804;SHT31;55787;52.678;13.314;2023-01-23T13:28:53;2.48;92.76
68804;SHT31;55787;52.678;13.314;2023-01-23T13:34:01;2.52;92.44
68804;SHT31;55787;52.678;13.314;2023-01-23T13:36:41;2.52;92.73
68804;SHT31;55787;52.678;13.314;2023-01-23T13:39:27;2.54;92.49
68804;SHT31;55787;52.678;13.314;2023-01-23T13:51:20;2.48;92.41
68804;SHT31;55787;52.678;13.314;2023-01-23T13:54:01;2.41;92.26
68804;SHT31;55787;52.678;13.314;2023-01-23T13:57:04;2.41;92.55
68804;SHT31;55787;52.678;13.314;2023-01-23T13:59:46;2.41;91.94
68804;SHT31;55787;52.678;13.314;2023-01-23T14:02:38;2.37;92.75
68804;SHT31;55787;52.678;13.314;2023-01-23T14:05:39;2.40;92.48
68804;SHT31;55787;52.678;13.314;2023-01-23T14:08:22;2.36;92.40
68804;SHT31;55787;52.678;13.314;2023-01-23T14:11:15;2.37;92.38
68804;SHT31;55787;52.678;13.314;2023-01-23T14:14:00;2.37;92.60
68804;SHT31;55787;52.678;13.314;2023-01-23T14:17:01;2.33;92.41
68804;SHT31;55787;52.678;13.314;2023-01-23T14:19:54;2.30;92.45
68804;SHT31;55787;52.678;13.314;2023-01-23T14:22:35;2.34;91.87
68804;SHT31;55787;52.678;13.314;2023-01-23T14:25:02;2.29;91.73
68804;SHT31;55787;52.678;13.314;2023-01-23T14:27:34;2.24;92.08
68804;SHT31;55787;52.678;13.314;2023-01-23T14:30:20;2.24;92.10
68804;SHT31;55787;52.678;13.314;2023-01-23T14:32:49;2.20;92.50
68804;SHT31;55787;52.678;13.314;2023-01-23T14:35:31;2.19;92.82
68804;SHT31;55787;52.678;13.314;2023-01-23T14:38:05;2.20;93.02
68804;SHT31;55787;52.678;13.314;2023-01-23T14:40:33;2.19;93.12
68804;SHT31;55787;52.678;13.314;2023-01-23T14:43:26;2.19;93.26
68804;SHT31;55787;52.678;13.314;2023-01-23T14:46:00;2.17;92.87
68804;SHT31;55787;52.678;13.314;2023-01-23T14:48:30;2.16;92.97
68804;SHT31;55787;52.678;13.314;2023-01-23T14:51:12;2.13;93.51
68804;SHT31;55787;52.678;13.314;2023-01-23T14:53:40;2.14;93.46
68804;SHT31;55787;52.678;13.314;2023-01-23T14:56:10;2.11;93.56
68804;SHT31;55787;52.678;13.314;2023-01-23T14:58:38;2.09;93.50
68804;SHT31;55787;52.678;13.314;2023-01-23T15:01:04;2.10;93.87
68804;SHT31;55787;52.678;13.314;2023-01-23T15:03:41;2.06;93.78
68804;SHT31;55787;52.678;13.314;2023-01-23T15:06:14;2.03;93.94
68804;SHT31;55787;52.678;13.314;2023-01-23T15:08:45;2.05;93.97
68804;SHT31;55787;52.678;13.314;2023-01-23T15:11:12;2.03;93.98
68804;SHT31;55787;52.678;13.314;2023-01-23T15:13:46;1.99;93.81
68804;SHT31;55787;52.678;13.314;2023-01-23T15:21:39;1.95;94.36
68804;SHT31;55787;52.678;13.314;2023-01-23T15:26:41;1.92;94.28
68804;SHT31;55787;52.678;13.314;2023-01-23T15:37:14;1.83;94.03
68804;SHT31;55787;52.678;13.314;2023-01-23T15:40:00;1.79;94.11
68804;SHT31;55787;52.678;13.314;2023-01-23T15:42:32;1.76;94.32
68804;SHT31;55787;52.678;13.314;2023-01-23T15:45:00;1.76;94.37
68804;SHT31;55787;52.678;13.314;2023-01-23T15:47:31;1.76;94.44
68804;SHT31;55787;52.678;13.314;2023-01-23T15:49:58;1.75;94.74
68804;SHT31;55787;52.678;13.314;2023-01-23T15:52:30;1.72;94.54
68804;SHT31;55787;52.678;13.314;2023-01-23T15:54:59;1.72;94.63
68804;SHT31;55787;52.678;13.314;2023-01-23T15:57:26;1.69;94.49
68804;SHT31;55787;52.678;13.314;2023-01-23T15:59:53;1.68;94.27
68804;SHT31;55787;52.678;13.314;2023-01-23T16:02:21;1.68;94.45
68804;SHT31;55787;52.678;13.314;2023-01-23T16:04:59;1.68;94.10
68804;SHT31;55787;52.678;13.314;2023-01-23T16:07:35;1.66;93.98
68804;SHT31;55787;52.678;13.314;2023-01-23T16:10:27;1.65;94.17
68804;SHT31;55787;52.678;13.314;2023-01-23T16:12:55;1.65;94.12
68804;SHT31;55787;52.678;13.314;2023-01-23T16:15:25;1.65;93.77
68804;SHT31;55787;52.678;13.314;2023-01-23T16:17:52;1.62;93.67
68804;SHT31;55787;52.678;13.314;2023-01-23T16:20:26;1.59;93.64
68804;SHT31;55787;52.678;13.314;2023-01-23T16:22:59;1.59;93.81
68804;SHT31;55787;52.678;13.314;2023-01-23T16:25:39;1.56;93.62
68804;SHT31;55787;52.678;13.314;2023-01-23T16:28:19;1.56;93.72
68804;SHT31;55787;52.678;13.314;2023-01-23T16:30:47;1.54;93.95
68804;SHT31;55787;52.678;13.314;2023-01-23T16:33:14;1.52;94.05
68804;SHT31;55787;52.678;13.314;2023-01-23T16:35:41;1.54;93.85
68804;SHT31;55787;52.678;13.314;2023-01-23T16:38:26;1.49;93.85
68804;SHT31;55787;52.678;13.314;2023-01-23T16:40:54;1.51;94.06
68804;SHT31;55787;52.678;13.314;2023-01-23T16:43:22;1.54;93.80
68804;SHT31;55787;52.678;13.314;2023-01-23T16:45:48;1.52;93.81
68804;SHT31;55787;52.678;13.314;2023-01-23T16:48:21;1.52;94.02
68804;SHT31;55787;52.678;13.314;2023-01-23T16:51:05;1.49;93.85
68804;SHT31;55787;52.678;13.314;2023-01-23T16:53:37;1.47;94.15
68804;SHT31;55787;52.678;13.314;2023-01-23T16:56:06;1.45;94.28
68804;SHT31;55787;52.678;13.314;2023-01-23T16:58:38;1.42;94.50
68804;SHT31;55787;52.678;13.314;2023-01-23T17:01:12;1.41;94.49
68804;SHT31;55787;52.678;13.314;2023-01-23T17:03:39;1.40;94.60
68804;SHT31;55787;52.678;13.314;2023-01-23T17:06:14;1.44;94.13
68804;SHT31;55787;52.678;13.314;2023-01-23T17:08:41;1.42;93.67
68804;SHT31;55787;52.678;13.314;2023-01-23T17:11:16;1.51;92.94
68804;SHT31;55787;52.678;13.314;2023-01-23T17:13:43;1.45;92.73
68804;SHT31;55787;52.678;13.314;2023-01-23T17:16:10;1.41;93.19
68804;SHT31;55787;52.678;13.314;2023-01-23T17:18:53;1.41;93.33
68804;SHT31;55787;52.678;13.314;2023-01-23T17:21:21;1.38;93.61
68804;SHT31;55787;52.678;13.314;2023-01-23T17:23:49;1.35;93.73
68804;SHT31;55787;52.678;13.314;2023-01-23T17:26:17;1.32;93.84
68804;SHT31;55787;52.678;13.314;2023-01-23T17:28:44;1.34;94.16
68804;SHT31;55787;52.678;13.314;2023-01-23T17:31:25;1.35;94.41
68804;SHT31;55787;52.678;13.314;2023-01-23T17:33:53;1.34;94.21
68804;SHT31;55787;52.678;13.314;2023-01-23T17:36:21;1.34;94.40
68804;SHT31;55787;52.678;13.314;2023-01-23T17:38:48;1.32;94.38
68804;SHT31;55787;52.678;13.314;2023-01-23T17:41:15;1.30;94.52
68804;SHT31;55787;52.678;13.314;2023-01-23T17:43:42;1.32;94.69
68804;SHT31;55787;52.678;13.314;2023-01-23T17:46:24;1.34;94.40